createdAt,value
2018-12-22T00:00:04.305Z,11.20
2018-12-22T00:02:35.439Z,11.20
2018-12-22T00:05:04.894Z,11.20
2018-12-22T00:07:33.971Z,11.10
2018-12-22T00:10:04.062Z,11.00
2018-12-22T00:12:33.117Z,11.00
2018-12-22T00:15:02.203Z,11.00
2018-12-22T00:17:31.269Z,11.00
2018-12-22T00:20:00.336Z,11.00
2018-12-22T00:22:29.403Z,11.00
2018-12-22T00:24:58.450Z,10.90
2018-12-22T00:27:27.534Z,11.00
2018-12-22T00:29:56.580Z,11.00
2018-12-22T00:32:25.588Z,10.90
2018-12-22T00:34:54.625Z,11.00
2018-12-22T00:37:23.693Z,10.90
2018-12-22T00:39:52.864Z,10.90
2018-12-22T00:42:21.986Z,11.00
2018-12-22T00:44:51.085Z,11.00
2018-12-22T00:47:20.240Z,11.00
2018-12-22T00:49:49.727Z,10.90
2018-12-22T00:52:18.809Z,11.00
2018-12-22T00:54:48.174Z,11.00
2018-12-22T00:57:17.206Z,11.00
2018-12-22T00:59:46.229Z,11.00
2018-12-22T01:02:15.297Z,11.00
2018-12-22T01:04:44.345Z,11.00
2018-12-22T01:07:13.377Z,11.00
2018-12-22T01:09:42.416Z,11.00
2018-12-22T01:12:11.558Z,11.00
2018-12-22T01:14:40.706Z,11.00
2018-12-22T01:17:09.730Z,11.00
2018-12-22T01:19:38.774Z,11.00
2018-12-22T01:22:07.831Z,11.00
2018-12-22T01:24:37.154Z,11.00
2018-12-22T01:27:06.297Z,11.00
2018-12-22T01:29:35.349Z,11.00
2018-12-22T01:32:04.421Z,11.00
2018-12-22T01:34:33.478Z,11.00
2018-12-22T01:37:02.523Z,11.00
2018-12-22T01:39:31.593Z,11.00
2018-12-22T01:42:00.626Z,11.00
2018-12-22T01:44:29.671Z,11.10
2018-12-22T01:46:58.750Z,11.00
2018-12-22T01:49:27.830Z,11.10
2018-12-22T01:51:56.877Z,11.00
2018-12-22T01:54:25.915Z,11.00
2018-12-22T01:56:55.065Z,11.00
2018-12-22T01:59:24.101Z,11.00
2018-12-22T02:01:53.653Z,11.00
2018-12-22T02:04:22.732Z,11.00
2018-12-22T02:06:51.800Z,11.00
2018-12-22T02:09:21.277Z,11.00
2018-12-22T02:11:50.333Z,10.90
2018-12-22T02:14:19.385Z,10.90
2018-12-22T02:16:48.482Z,10.90
2018-12-22T02:19:17.686Z,10.90
2018-12-22T02:21:46.730Z,10.90
2018-12-22T02:24:15.762Z,10.90
2018-12-22T02:26:44.929Z,11.00
2018-12-22T02:29:13.969Z,11.00
2018-12-22T02:31:43.054Z,11.00
2018-12-22T02:34:12.096Z,11.00
2018-12-22T02:36:41.149Z,11.00
2018-12-22T02:39:10.193Z,11.00
2018-12-22T02:41:39.244Z,11.00
2018-12-22T02:44:08.423Z,11.00
2018-12-22T02:46:37.507Z,11.00
2018-12-22T02:49:06.544Z,11.00
2018-12-22T02:51:35.599Z,11.00
2018-12-22T02:54:04.665Z,11.00
2018-12-22T02:56:33.706Z,11.00
2018-12-22T02:59:06.375Z,11.00
2018-12-22T03:01:33.848Z,11.00
2018-12-22T03:04:02.933Z,11.10
2018-12-22T03:06:31.996Z,11.10
2018-12-22T03:09:01.093Z,11.10
2018-12-22T03:11:30.236Z,11.10
2018-12-22T03:13:59.311Z,11.10
2018-12-22T03:16:28.345Z,11.10
2018-12-22T03:18:57.435Z,11.10
2018-12-22T03:21:26.496Z,11.10
2018-12-22T03:23:55.554Z,11.10
2018-12-22T03:26:24.577Z,11.10
2018-12-22T03:28:53.642Z,11.10
2018-12-22T03:31:22.665Z,11.10
2018-12-22T03:33:51.721Z,11.10
2018-12-22T03:36:20.746Z,11.20
2018-12-22T03:38:49.769Z,11.20
2018-12-22T03:41:18.794Z,11.20
2018-12-22T03:43:47.959Z,11.20
2018-12-22T03:46:17.032Z,11.30
2018-12-22T03:48:46.082Z,11.20
2018-12-22T03:51:15.113Z,11.10
2018-12-22T03:53:44.188Z,11.10
2018-12-22T03:56:13.226Z,11.00
2018-12-22T03:58:42.297Z,11.00
2018-12-22T04:01:11.330Z,10.90
2018-12-22T04:03:40.345Z,10.90
2018-12-22T04:06:09.387Z,10.90
2018-12-22T04:08:38.472Z,10.90
2018-12-22T04:11:07.530Z,10.90
2018-12-22T04:13:36.544Z,10.90
2018-12-22T04:16:05.641Z,10.90
2018-12-22T04:18:34.643Z,10.90
2018-12-22T04:21:03.704Z,10.90
2018-12-22T04:23:32.751Z,10.90
2018-12-22T04:26:01.853Z,10.90
2018-12-22T04:28:30.855Z,11.00
2018-12-22T04:30:59.917Z,11.00
2018-12-22T04:33:28.972Z,11.00
2018-12-22T04:35:58.097Z,11.10
2018-12-22T04:38:27.128Z,11.10
2018-12-22T04:40:56.146Z,11.10
2018-12-22T04:43:25.180Z,11.10
2018-12-22T04:45:54.372Z,11.20
2018-12-22T04:48:23.448Z,11.20
2018-12-22T04:50:52.470Z,11.10
2018-12-22T04:53:21.492Z,11.20
2018-12-22T04:55:50.609Z,11.20
2018-12-22T04:58:19.628Z,11.30
2018-12-22T05:00:48.681Z,11.40
2018-12-22T05:03:17.715Z,11.50
2018-12-22T05:05:46.751Z,11.50
2018-12-22T05:08:15.800Z,11.70
2018-12-22T05:10:44.837Z,11.70
2018-12-22T05:13:13.885Z,11.60
2018-12-22T05:15:42.885Z,11.60
2018-12-22T05:18:12.049Z,11.60
2018-12-22T05:20:41.091Z,11.60
2018-12-22T05:23:10.407Z,11.60
2018-12-22T05:25:39.412Z,11.60
2018-12-22T05:28:08.526Z,11.60
2018-12-22T05:30:37.525Z,11.60
2018-12-22T05:33:06.592Z,11.50
2018-12-22T05:35:35.615Z,11.50
2018-12-22T05:38:04.682Z,11.50
2018-12-22T05:40:33.713Z,11.50
2018-12-22T05:43:03.848Z,11.50
2018-12-22T05:45:33.214Z,11.50
2018-12-22T05:48:02.239Z,11.50
2018-12-22T05:50:31.287Z,11.40
2018-12-22T05:53:00.316Z,11.30
2018-12-22T05:55:29.342Z,11.30
2018-12-22T05:57:58.469Z,11.30
2018-12-22T06:00:27.521Z,11.30
2018-12-22T06:02:56.574Z,11.30
2018-12-22T06:05:25.613Z,11.30
2018-12-22T06:07:54.633Z,11.30
2018-12-22T06:10:23.653Z,11.20
2018-12-22T06:12:53.875Z,11.20
2018-12-22T06:15:22.918Z,11.30
2018-12-22T06:17:53.056Z,11.30
2018-12-22T06:20:22.099Z,11.30
2018-12-22T06:22:51.100Z,11.30
2018-12-22T06:25:20.174Z,11.30
2018-12-22T06:27:49.271Z,11.30
2018-12-22T06:30:18.419Z,11.20
2018-12-22T06:32:47.450Z,11.20
2018-12-22T06:35:16.668Z,11.20
2018-12-22T06:37:45.883Z,11.20
2018-12-22T06:40:17.171Z,11.20
2018-12-22T06:42:46.871Z,11.20
2018-12-22T06:45:16.274Z,11.20
2018-12-22T06:47:45.321Z,11.20
2018-12-22T06:50:14.463Z,11.30
2018-12-22T06:52:43.777Z,11.30
2018-12-22T06:55:13.726Z,11.20
2018-12-22T06:57:42.825Z,11.30
2018-12-22T07:00:17.553Z,11.20
2018-12-22T07:02:43.048Z,11.20
2018-12-22T07:05:12.064Z,11.10
2018-12-22T07:07:41.122Z,10.90
2018-12-22T07:10:10.153Z,10.80
2018-12-22T07:12:39.309Z,10.50
2018-12-22T07:15:08.345Z,10.30
2018-12-22T07:17:37.433Z,10.00
2018-12-22T07:20:06.746Z,9.70
2018-12-22T07:22:35.785Z,9.40
2018-12-22T07:25:04.930Z,9.20
2018-12-22T07:27:34.008Z,9.10
2018-12-22T07:30:03.393Z,9.10
2018-12-22T07:32:32.414Z,9.00
2018-12-22T07:35:01.503Z,8.90
2018-12-22T07:37:30.571Z,8.90
2018-12-22T07:39:59.621Z,9.00
2018-12-22T07:42:28.673Z,9.00
2018-12-22T07:44:57.729Z,9.10
2018-12-22T07:47:28.378Z,9.10
2018-12-22T07:49:57.412Z,9.20
2018-12-22T07:52:26.498Z,9.30
2018-12-22T07:54:55.558Z,9.30
2018-12-22T07:57:24.834Z,9.30
2018-12-22T07:59:53.907Z,9.50
2018-12-22T08:02:22.995Z,9.50
2018-12-22T08:04:52.216Z,9.60
2018-12-22T08:07:21.396Z,9.60
2018-12-22T08:09:50.449Z,9.70
2018-12-22T08:12:19.502Z,9.70
2018-12-22T08:14:48.555Z,9.70
2018-12-22T08:17:17.590Z,9.70
2018-12-22T08:19:46.761Z,9.70
2018-12-22T08:22:15.786Z,9.70
2018-12-22T08:24:44.862Z,9.70
2018-12-22T08:27:13.921Z,9.70
2018-12-22T08:29:43.015Z,9.70
2018-12-22T08:32:12.034Z,9.70
2018-12-22T08:34:41.104Z,9.70
2018-12-22T08:37:10.190Z,9.70
2018-12-22T08:39:39.245Z,9.70
2018-12-22T08:42:08.374Z,9.70
2018-12-22T08:44:37.424Z,9.80
2018-12-22T08:47:06.633Z,9.80
2018-12-22T08:49:35.704Z,9.80
2018-12-22T08:52:04.973Z,9.80
2018-12-22T08:54:34.037Z,9.90
2018-12-22T08:57:03.129Z,9.80
2018-12-22T08:59:32.194Z,9.80
2018-12-22T09:02:01.339Z,9.80
2018-12-22T09:04:31.170Z,9.80
2018-12-22T09:07:00.423Z,9.90
2018-12-22T09:09:29.746Z,9.90
2018-12-22T09:11:58.853Z,9.90
2018-12-22T09:14:27.967Z,9.90
2018-12-22T09:16:57.061Z,9.90
2018-12-22T09:19:26.320Z,9.90
2018-12-22T09:21:55.581Z,9.80
2018-12-22T09:24:25.016Z,9.70
2018-12-22T09:26:54.198Z,9.60
2018-12-22T09:29:23.289Z,9.60
2018-12-22T09:31:53.271Z,9.60
2018-12-22T09:34:22.335Z,9.60
2018-12-22T09:36:51.432Z,9.60
2018-12-22T09:39:20.474Z,9.60
2018-12-22T09:41:49.513Z,9.60
2018-12-22T09:44:18.617Z,9.70
2018-12-22T09:46:47.685Z,9.60
2018-12-22T09:49:16.761Z,9.60
2018-12-22T09:51:45.911Z,9.50
2018-12-22T09:54:14.980Z,9.50
2018-12-22T09:56:44.033Z,9.60
2018-12-22T09:59:13.173Z,9.50
2018-12-22T10:01:42.250Z,9.50
2018-12-22T10:04:11.419Z,9.50
2018-12-22T10:06:41.427Z,9.60
2018-12-22T10:09:10.509Z,9.50
2018-12-22T10:11:40.789Z,9.70
2018-12-22T10:14:09.841Z,9.70
2018-12-22T10:16:39.446Z,9.80
2018-12-22T10:19:08.493Z,9.80
2018-12-22T10:21:37.585Z,9.70
2018-12-22T10:24:06.680Z,9.60
2018-12-22T10:26:35.745Z,9.50
2018-12-22T10:29:04.859Z,9.50
2018-12-22T10:31:33.969Z,9.40
2018-12-22T10:34:03.071Z,9.40
2018-12-22T10:36:32.110Z,9.40
2018-12-22T10:39:01.224Z,9.30
2018-12-22T10:41:30.853Z,9.30
2018-12-22T10:44:00.218Z,9.40
2018-12-22T10:46:29.457Z,9.40
2018-12-22T10:48:58.825Z,9.50
2018-12-22T10:51:28.014Z,9.60
2018-12-22T10:53:57.165Z,9.70
2018-12-22T10:56:26.301Z,9.70
2018-12-22T10:58:55.732Z,9.80
2018-12-22T11:01:26.715Z,9.80
2018-12-22T11:03:56.054Z,9.90
2018-12-22T11:06:25.204Z,9.90
2018-12-22T11:08:54.348Z,9.90
2018-12-22T11:11:23.587Z,9.90
2018-12-22T11:13:52.867Z,10.00
2018-12-22T11:16:22.022Z,10.00
2018-12-22T11:18:51.258Z,10.00
2018-12-22T11:21:20.518Z,10.00
2018-12-22T11:23:49.679Z,10.10
2018-12-22T11:26:19.005Z,10.10
2018-12-22T11:28:48.291Z,10.10
2018-12-22T11:31:17.390Z,10.10
2018-12-22T11:33:47.726Z,10.10
2018-12-22T11:36:16.877Z,10.20
2018-12-22T11:38:46.041Z,10.30
2018-12-22T11:41:15.121Z,10.40
2018-12-22T11:43:44.306Z,10.50
2018-12-22T11:46:14.053Z,10.60
2018-12-22T11:48:57.737Z,10.60
2018-12-22T11:51:27.024Z,10.50
2018-12-22T11:53:56.113Z,10.60
2018-12-22T11:56:25.266Z,10.60
2018-12-22T11:58:54.718Z,10.60
2018-12-22T12:01:23.802Z,10.60
2018-12-22T12:03:53.296Z,10.70
2018-12-22T12:06:22.729Z,10.70
2018-12-22T12:08:52.054Z,10.70
2018-12-22T12:11:22.414Z,10.80
2018-12-22T12:13:52.822Z,10.80
2018-12-22T12:16:26.787Z,10.80
2018-12-22T12:19:15.501Z,10.90
2018-12-22T12:21:44.685Z,10.90
2018-12-22T12:24:14.738Z,11.00
2018-12-22T12:26:44.084Z,11.00
2018-12-22T12:29:13.196Z,11.00
2018-12-22T12:31:42.404Z,11.00
2018-12-22T12:34:11.806Z,11.00
2018-12-22T12:36:40.913Z,11.00
2018-12-22T12:39:17.107Z,11.10
2018-12-22T12:41:46.338Z,11.10
2018-12-22T12:50:18.189Z,11.20
2018-12-22T12:52:47.495Z,11.20
2018-12-22T12:55:16.578Z,11.20
2018-12-22T12:57:45.670Z,11.20
2018-12-22T13:00:16.821Z,11.10
2018-12-22T13:02:46.071Z,11.20
2018-12-22T13:05:15.249Z,11.30
2018-12-22T13:07:44.354Z,11.30
2018-12-22T13:10:13.593Z,11.30
2018-12-22T13:12:51.687Z,11.40
2018-12-22T13:15:20.789Z,11.30
2018-12-22T13:17:49.857Z,11.40
2018-12-22T13:20:19.303Z,11.50
2018-12-22T13:22:48.406Z,11.70
2018-12-22T13:25:18.590Z,11.80
2018-12-22T13:27:50.149Z,11.80
2018-12-22T13:30:19.267Z,11.80
2018-12-22T13:32:48.463Z,11.90
2018-12-22T13:35:17.498Z,11.90
2018-12-22T13:37:46.605Z,11.90
2018-12-22T13:40:15.723Z,11.90
2018-12-22T13:42:44.901Z,11.90
2018-12-22T13:45:13.979Z,11.80
2018-12-22T13:47:43.228Z,11.70
2018-12-22T13:50:12.874Z,11.70
2018-12-22T13:52:43.153Z,11.70
2018-12-22T13:55:12.199Z,11.70
2018-12-22T13:57:41.365Z,11.70
2018-12-22T14:00:12.898Z,11.60
2018-12-22T14:02:42.440Z,11.60
2018-12-22T14:05:14.636Z,11.60
2018-12-22T14:07:43.701Z,11.50
2018-12-22T14:10:12.775Z,11.50
2018-12-22T14:12:41.938Z,11.50
2018-12-22T14:15:14.609Z,11.50
2018-12-22T14:18:06.905Z,11.50
2018-12-22T14:20:36.315Z,11.50
2018-12-22T14:23:06.245Z,11.50
2018-12-22T14:25:35.266Z,11.40
2018-12-22T14:28:04.668Z,11.30
2018-12-22T14:30:36.883Z,11.20
2018-12-22T14:33:06.573Z,11.20
2018-12-22T14:35:40.437Z,11.20
2018-12-22T14:38:09.534Z,11.20
2018-12-22T14:40:38.645Z,11.10
2018-12-22T14:43:08.183Z,11.00
2018-12-22T14:45:37.345Z,10.90
2018-12-22T14:48:06.482Z,10.90
2018-12-22T14:50:35.904Z,10.80
2018-12-22T14:53:04.940Z,10.70
2018-12-22T14:55:34.114Z,10.70
2018-12-22T14:58:10.893Z,10.60
2018-12-22T15:00:40.149Z,10.60
2018-12-22T15:03:09.997Z,10.50
2018-12-22T15:05:39.125Z,10.50
2018-12-22T15:08:08.355Z,10.40
2018-12-22T15:10:38.240Z,10.40
2018-12-22T15:13:07.430Z,10.40
2018-12-22T15:15:36.668Z,10.40
2018-12-22T15:18:05.765Z,10.40
2018-12-22T15:20:34.897Z,10.40
2018-12-22T15:23:06.670Z,10.40
2018-12-22T15:25:35.749Z,10.30
2018-12-22T15:28:04.793Z,10.20
2018-12-22T15:30:33.979Z,10.20
2018-12-22T15:33:03.686Z,10.20
2018-12-22T15:35:32.898Z,10.10
2018-12-22T15:38:02.089Z,10.10
2018-12-22T15:40:31.296Z,10.00
2018-12-22T15:43:00.361Z,10.00
2018-12-22T15:45:29.454Z,10.00
2018-12-22T15:47:58.747Z,10.00
2018-12-22T15:50:29.996Z,9.90
2018-12-22T15:53:00.217Z,9.90
2018-12-22T15:55:30.469Z,9.80
2018-12-22T15:57:59.662Z,9.80
2018-12-22T16:00:28.755Z,9.90
2018-12-22T16:02:57.816Z,9.80
2018-12-22T16:05:26.993Z,9.80
2018-12-22T16:07:56.150Z,9.70
2018-12-22T16:10:25.187Z,9.80
2018-12-22T16:12:54.287Z,9.70
2018-12-22T16:15:23.413Z,9.70
2018-12-22T16:17:52.505Z,9.60
2018-12-22T16:20:21.609Z,9.70
2018-12-22T16:22:55.786Z,9.60
2018-12-22T16:25:24.993Z,9.60
2018-12-22T16:27:57.766Z,9.60
2018-12-22T16:30:29.674Z,9.60
2018-12-22T16:33:01.741Z,9.60
2018-12-22T16:35:29.846Z,9.60
2018-12-22T16:37:58.915Z,9.50
2018-12-22T16:40:27.992Z,9.50
2018-12-22T16:42:57.071Z,9.50
2018-12-22T16:45:26.256Z,9.50
2018-12-22T16:47:55.372Z,9.50
2018-12-22T16:50:24.464Z,9.50
2018-12-22T16:52:53.513Z,9.50
2018-12-22T16:55:23.034Z,9.50
2018-12-22T16:58:02.143Z,9.40
2018-12-22T17:00:33.740Z,9.40
2018-12-22T17:03:10.688Z,9.40
2018-12-22T17:05:37.518Z,9.40
2018-12-22T17:08:06.626Z,9.40
2018-12-22T17:10:39.342Z,9.40
2018-12-22T17:13:09.288Z,9.40
2018-12-22T17:15:41.052Z,9.40
2018-12-22T17:18:10.169Z,9.40
2018-12-22T17:20:39.401Z,9.30
2018-12-22T17:24:31.545Z,9.30
2018-12-22T17:27:00.642Z,9.30
2018-12-22T17:29:29.686Z,9.40
2018-12-22T17:31:58.772Z,9.30
2018-12-22T17:34:28.296Z,9.30
2018-12-22T17:36:57.384Z,9.30
2018-12-22T17:39:26.673Z,9.40
2018-12-22T17:41:55.740Z,9.40
2018-12-22T17:44:24.836Z,9.40
2018-12-22T17:46:55.138Z,9.40
2018-12-22T17:49:24.238Z,9.30
2018-12-22T17:51:53.420Z,9.30
2018-12-22T17:54:22.460Z,9.30
2018-12-22T17:56:52.646Z,9.30
2018-12-22T17:59:21.690Z,9.30
2018-12-22T18:01:50.760Z,9.30
2018-12-22T18:04:19.857Z,9.30
2018-12-22T18:06:48.946Z,9.30
2018-12-22T18:09:18.026Z,9.30
2018-12-22T18:11:47.225Z,9.30
2018-12-22T18:14:16.357Z,9.30
2018-12-22T18:16:45.375Z,9.30
2018-12-22T18:19:14.430Z,9.20
2018-12-22T18:21:43.471Z,9.30
2018-12-22T18:24:12.629Z,9.20
2018-12-22T18:26:41.742Z,9.20
2018-12-22T18:29:10.852Z,9.20
2018-12-22T18:31:40.011Z,9.20
2018-12-22T18:34:09.145Z,9.10
2018-12-22T18:36:39.482Z,9.10
2018-12-22T18:39:08.556Z,9.10
2018-12-22T18:41:38.826Z,9.10
2018-12-22T18:44:07.906Z,9.10
2018-12-22T18:46:37.066Z,9.00
2018-12-22T18:49:06.161Z,9.00
2018-12-22T18:51:35.488Z,9.00
2018-12-22T18:54:04.557Z,8.90
2018-12-22T18:56:33.634Z,8.90
2018-12-22T18:59:02.817Z,8.90
2018-12-22T19:01:31.898Z,8.90
2018-12-22T19:04:01.008Z,8.80
2018-12-22T19:06:30.090Z,8.80
2018-12-22T19:09:01.467Z,8.80
2018-12-22T19:11:32.206Z,8.80
2018-12-22T19:14:01.320Z,8.80
2018-12-22T19:16:30.419Z,8.70
2018-12-22T19:18:59.733Z,8.70
2018-12-22T19:21:28.872Z,8.60
2018-12-22T19:23:57.963Z,8.60
2018-12-22T19:26:27.042Z,8.60
2018-12-22T19:28:56.170Z,8.60
2018-12-22T19:31:25.281Z,8.60
2018-12-22T19:33:54.384Z,8.50
2018-12-22T19:36:23.521Z,8.50
2018-12-22T19:38:52.605Z,8.60
2018-12-22T19:41:22.709Z,8.60
2018-12-22T19:43:51.937Z,8.50
2018-12-22T19:46:21.177Z,8.50
2018-12-22T19:48:50.324Z,8.60
2018-12-22T19:51:19.578Z,8.60
2018-12-22T19:53:48.661Z,8.50
2018-12-22T19:56:17.758Z,8.50
2018-12-22T19:58:46.838Z,8.60
2018-12-22T20:01:15.960Z,8.60
2018-12-22T20:03:45.166Z,8.60
2018-12-22T20:06:14.249Z,8.60
2018-12-22T20:08:43.483Z,8.60
2018-12-22T20:11:16.002Z,8.60
2018-12-22T20:13:45.557Z,8.60
2018-12-22T20:16:14.648Z,8.60
2018-12-22T20:18:43.777Z,8.70
2018-12-22T20:21:12.829Z,8.70
2018-12-22T20:23:41.982Z,8.80
2018-12-22T20:26:11.121Z,8.70
2018-12-22T20:28:40.330Z,8.70
2018-12-22T20:31:09.445Z,8.70
2018-12-22T20:33:38.497Z,8.60
2018-12-22T20:36:07.655Z,8.60
2018-12-22T20:38:36.827Z,8.60
2018-12-22T20:41:05.947Z,8.60
2018-12-22T20:43:35.037Z,8.60
2018-12-22T20:46:04.223Z,8.50
2018-12-22T20:48:33.334Z,8.50
2018-12-22T20:51:02.443Z,8.50
2018-12-22T20:53:31.627Z,8.40
2018-12-22T20:56:00.758Z,8.40
2018-12-22T20:58:29.901Z,8.40
2018-12-22T21:00:59.204Z,8.40
2018-12-22T21:03:37.562Z,8.30
2018-12-22T21:06:12.373Z,8.40
2018-12-22T21:08:41.458Z,8.30
2018-12-22T21:11:10.557Z,8.30
2018-12-22T21:13:39.905Z,8.20
2018-12-22T21:16:09.086Z,8.20
2018-12-22T21:18:38.297Z,8.20
2018-12-22T21:21:07.426Z,8.20
2018-12-22T21:23:36.530Z,8.20
2018-12-22T21:26:05.687Z,8.30
2018-12-22T21:28:34.765Z,8.30
2018-12-22T21:31:03.962Z,8.30
2018-12-22T21:33:33.036Z,8.30
2018-12-22T21:36:02.147Z,8.30
2018-12-22T21:38:32.317Z,8.30
2018-12-22T21:41:02.188Z,8.30
2018-12-22T21:43:31.340Z,8.20
2018-12-22T21:46:00.467Z,8.30
2018-12-22T21:48:29.582Z,8.20
2018-12-22T21:50:59.131Z,8.30
2018-12-22T21:53:29.450Z,8.20
2018-12-22T21:55:58.638Z,8.20
2018-12-22T21:58:27.797Z,8.20
2018-12-22T22:00:57.060Z,8.20
2018-12-22T22:03:26.169Z,8.20
2018-12-22T22:05:55.398Z,8.20
2018-12-22T22:08:24.713Z,8.20
2018-12-22T22:10:53.843Z,8.10
2018-12-22T22:13:22.933Z,8.20
2018-12-22T22:15:53.048Z,8.20
2018-12-22T22:18:22.421Z,8.20
2018-12-22T22:20:53.017Z,8.30
2018-12-22T22:23:22.134Z,8.30
2018-12-22T22:25:51.284Z,8.30
2018-12-22T22:28:20.674Z,8.30
2018-12-22T22:30:49.756Z,8.30
2018-12-22T22:33:18.833Z,8.40
2018-12-22T22:35:47.906Z,8.40
2018-12-22T22:38:17.022Z,8.50
2018-12-22T22:40:46.098Z,8.50
2018-12-22T22:43:15.261Z,8.50
2018-12-22T22:45:44.439Z,8.60
2018-12-22T23:06:12.621Z,8.70
2018-12-22T23:08:41.680Z,8.60
2018-12-22T23:11:10.914Z,8.70
2018-12-22T23:13:39.969Z,8.70
2018-12-22T23:16:09.162Z,8.70
2018-12-22T23:21:34.716Z,8.80
2018-12-22T23:24:04.098Z,8.70
2018-12-22T23:26:33.186Z,8.70
2018-12-22T23:29:03.080Z,8.70
2018-12-22T23:31:32.247Z,8.70
2018-12-22T23:34:10.031Z,8.70
2018-12-22T23:36:39.070Z,8.70
2018-12-22T23:39:11.135Z,8.70
2018-12-22T23:41:41.457Z,8.70
2018-12-22T23:44:10.702Z,8.60
2018-12-22T23:46:39.886Z,8.60
2018-12-22T23:49:09.049Z,8.60
2018-12-22T23:51:38.343Z,8.60
2018-12-22T23:54:07.449Z,8.50
2018-12-22T23:56:36.525Z,8.50
2018-12-22T23:59:05.582Z,8.50
